Time;durP1;ratioP1;P1;durP2;ratioP2;P2;SDS_P1;SDS_P2;PMS_P1;PMS_P2;Temp;Humidity;BMP_temperature;BMP_pressure;BME280_temperature;BME280_humidity;BME280_pressure;Samples;Min_cycle;Max_cycle;Signal;HPM_P1;HPM_P2
2023/08/04 00:00:16;;;;;;;3.83;1.00;;;15.20;99.90;;;;;;5040001;28;20192;-82
2023/08/04 00:02:41;;;;;;;3.57;1.00;;;15.20;99.90;;;;;;5043384;28;20258;-85
2023/08/04 00:05:08;;;;;;;3.30;1.17;;;15.20;99.90;;;;;;5052616;28;20184;-83
2023/08/04 00:07:34;;;;;;;3.80;2.50;;;15.30;99.90;;;;;;5055573;28;20188;-81
2023/08/04 00:10:00;;;;;;;2.70;0.80;;;15.40;99.90;;;;;;5049807;28;20449;-82
2023/08/04 00:12:25;;;;;;;2.60;0.87;;;15.40;99.90;;;;;;5032982;28;20471;-82
2023/08/04 00:14:51;;;;;;;5.27;0.90;;;15.40;99.90;;;;;;5050965;28;20272;-82
2023/08/04 00:17:17;;;;;;;2.40;1.07;;;15.50;99.90;;;;;;5053824;28;20184;-81
2023/08/04 00:19:43;;;;;;;3.20;1.20;;;15.50;99.90;;;;;;5038616;28;20447;-82
2023/08/04 00:22:09;;;;;;;1.80;0.90;;;16.60;99.90;;;;;;5045325;28;21291;-82
2023/08/04 00:24:35;;;;;;;2.77;1.00;;;15.30;99.90;;;;;;5036437;28;21457;-80
2023/08/04 00:27:01;;;;;;;3.73;1.33;;;15.20;99.90;;;;;;5038480;28;20683;-85
2023/08/04 00:29:27;;;;;;;1.63;1.00;;;15.10;99.90;;;;;;5054537;28;20516;-82
2023/08/04 00:31:53;;;;;;;1.07;0.97;;;15.00;99.90;;;;;;5053549;28;20502;-80
2023/08/04 00:34:19;;;;;;;5.13;1.17;;;14.90;99.90;;;;;;5038472;28;20435;-83
2023/08/04 00:36:45;;;;;;;3.90;1.10;;;14.90;99.90;;;;;;5054989;28;20917;-82
2023/08/04 00:39:11;;;;;;;5.30;1.63;;;14.80;99.90;;;;;;5037707;28;20200;-83
2023/08/04 00:41:37;;;;;;;1.50;1.40;;;14.70;99.90;;;;;;5043349;28;21664;-81
2023/08/04 00:44:03;;;;;;;2.53;1.07;;;14.70;99.90;;;;;;5034922;28;20549;-81
2023/08/04 00:46:29;;;;;;;2.93;1.27;;;14.60;99.90;;;;;;5039711;28;20751;-82
2023/08/04 00:48:56;;;;;;;1.77;1.10;;;14.60;99.90;;;;;;5052058;28;20233;-82
2023/08/04 00:51:22;;;;;;;3.50;1.27;;;14.60;99.90;;;;;;5040107;28;20456;-80
2023/08/04 00:53:48;;;;;;;2.43;0.93;;;14.60;99.90;;;;;;5054486;28;20440;-81
2023/08/04 00:56:14;;;;;;;6.27;1.10;;;14.70;99.90;;;;;;5040137;28;21272;-81
2023/08/04 00:58:40;;;;;;;4.30;1.10;;;14.70;99.90;;;;;;5038870;28;20550;-82
2023/08/04 01:01:05;;;;;;;2.10;1.03;;;14.60;99.90;;;;;;5034031;28;20465;-82
2023/08/04 01:03:32;;;;;;;1.30;1.10;;;14.60;99.90;;;;;;5050590;28;20208;-81
2023/08/04 01:06:35;;;;;;;3.13;1.00;;;14.50;99.90;;;;;;5059385;28;20168;-83
2023/08/04 01:09:23;;;;;;;1.70;0.90;;;14.50;99.90;;;;;;5045103;28;20491;-85
2023/08/04 01:12:04;;;;;;;5.13;0.90;;;14.50;99.90;;;;;;5036198;28;20465;-82
2023/08/04 01:14:31;;;;;;;3.10;1.50;;;14.50;99.90;;;;;;5052598;28;21301;-86
2023/08/04 01:17:00;;;;;;;1.27;0.87;;;14.50;99.90;;;;;;5035983;28;21392;-83
2023/08/04 01:19:26;;;;;;;2.20;1.17;;;14.60;99.90;;;;;;5030524;28;20509;-83
2023/08/04 01:21:52;;;;;;;3.57;1.23;;;14.60;99.90;;;;;;5036657;28;21251;-83
2023/08/04 01:24:17;;;;;;;2.10;1.63;;;14.60;99.90;;;;;;5049089;28;20211;-80
2023/08/04 01:26:47;;;;;;;2.90;1.07;;;14.70;99.90;;;;;;5050147;28;20203;-81
2023/08/04 01:29:14;;;;;;;2.30;1.30;;;14.80;99.90;;;;;;5046784;28;20180;-84
2023/08/04 01:31:41;;;;;;;3.13;1.27;;;14.70;99.90;;;;;;5030399;28;20510;-83
2023/08/04 01:34:07;;;;;;;2.80;1.00;;;14.70;99.90;;;;;;5035760;28;20438;-80
2023/08/04 01:36:32;;;;;;;2.00;0.83;;;14.80;99.90;;;;;;5032202;28;20442;-82
2023/08/04 01:39:00;;;;;;;4.63;1.83;;;14.90;99.90;;;;;;5049062;28;20485;-80
2023/08/04 01:41:25;;;;;;;1.90;1.03;;;14.90;99.90;;;;;;5049266;28;20201;-81
2023/08/04 01:43:51;;;;;;;3.27;1.10;;;14.60;99.90;;;;;;5029968;28;21036;-82
2023/08/04 01:46:16;;;;;;;2.23;1.10;;;14.30;99.90;;;;;;5050570;28;20664;-80
2023/08/04 01:48:42;;;;;;;2.73;0.80;;;14.20;99.90;;;;;;5032985;28;20182;-80
2023/08/04 01:51:07;;;;;;;1.67;1.03;;;14.30;99.90;;;;;;5053808;28;20199;-81
2023/08/04 01:53:33;;;;;;;3.30;1.10;;;14.30;99.90;;;;;;5054100;28;20180;-82
2023/08/04 01:55:58;;;;;;;2.40;1.00;;;14.10;99.90;;;;;;5039528;28;20189;-82
2023/08/04 01:58:24;;;;;;;1.80;1.00;;;13.90;99.90;;;;;;5053423;28;20593;-81
2023/08/04 02:00:50;;;;;;;2.20;1.03;;;13.80;99.90;;;;;;5032716;28;20188;-82
2023/08/04 02:03:16;;;;;;;1.57;1.13;;;13.70;99.90;;;;;;5033580;28;20890;-82
2023/08/04 02:05:46;;;;;;;7.23;1.70;;;13.80;99.90;;;;;;5034613;28;20531;-82
2023/08/04 02:08:11;;;;;;;3.23;1.57;;;13.70;99.90;;;;;;5031055;28;20189;-81
2023/08/04 02:10:36;;;;;;;4.37;1.53;;;13.80;99.90;;;;;;5057177;28;20518;-80
2023/08/04 02:13:02;;;;;;;3.00;1.27;;;13.90;99.90;;;;;;5047245;28;20212;-82
2023/08/04 02:15:27;;;;;;;1.83;1.40;;;13.90;99.90;;;;;;5045041;28;20191;-83
2023/08/04 02:17:53;;;;;;;1.67;1.20;;;13.90;99.90;;;;;;5038093;28;20188;-82
2023/08/04 02:20:19;;;;;;;12.30;2.10;;;13.80;99.90;;;;;;5038081;28;20204;-82
2023/08/04 02:22:44;;;;;;;3.43;1.23;;;13.80;99.90;;;;;;5049274;28;20199;-82
2023/08/04 02:25:10;;;;;;;1.57;1.10;;;13.80;99.90;;;;;;5040329;28;20189;-82
2023/08/04 02:27:35;;;;;;;4.00;1.73;;;13.80;99.90;;;;;;5055267;28;20198;-82
2023/08/04 02:30:01;;;;;;;3.03;1.60;;;13.80;99.90;;;;;;5038158;28;20271;-81
2023/08/04 02:32:27;;;;;;;4.83;1.70;;;13.80;99.90;;;;;;5037902;28;20201;-83
2023/08/04 02:34:52;;;;;;;4.70;1.63;;;13.80;99.90;;;;;;5052039;28;20458;-84
2023/08/04 02:37:18;;;;;;;2.80;1.20;;;13.90;99.90;;;;;;5033817;28;20208;-81
2023/08/04 02:39:43;;;;;;;4.50;1.90;;;14.00;99.90;;;;;;5053460;28;20767;-82
2023/08/04 02:42:09;;;;;;;2.83;1.10;;;14.10;99.90;;;;;;5034934;28;20207;-82
2023/08/04 02:44:34;;;;;;;5.60;2.47;;;14.20;99.90;;;;;;5051419;28;20181;-82
2023/08/04 02:47:00;;;;;;;3.70;1.00;;;14.30;99.90;;;;;;5035089;28;20184;-82
2023/08/04 02:49:25;;;;;;;8.43;1.40;;;14.40;99.90;;;;;;5033723;28;20191;-83
2023/08/04 02:51:51;;;;;;;4.57;1.70;;;14.50;99.90;;;;;;5051976;28;20212;-83
2023/08/04 02:54:16;;;;;;;3.70;1.40;;;14.50;99.90;;;;;;5054646;28;20716;-83
2023/08/04 02:56:42;;;;;;;1.83;1.13;;;14.50;99.90;;;;;;5038821;28;20184;-82
2023/08/04 02:59:07;;;;;;;4.00;1.40;;;14.50;99.90;;;;;;5051946;28;20770;-83
2023/08/04 03:01:33;;;;;;;2.80;1.30;;;14.50;99.90;;;;;;5054688;28;20330;-84
2023/08/04 03:03:58;;;;;;;1.47;0.87;;;14.50;99.90;;;;;;5043173;28;20875;-82
2023/08/04 03:06:24;;;;;;;1.97;1.00;;;14.50;99.90;;;;;;5043750;28;20885;-82
2023/08/04 03:08:49;;;;;;;2.73;1.30;;;14.60;99.90;;;;;;5039443;28;20656;-83
2023/08/04 03:11:15;;;;;;;5.87;1.33;;;14.60;99.90;;;;;;5053755;28;20240;-82
2023/08/04 03:13:40;;;;;;;6.10;1.63;;;14.60;99.90;;;;;;5039351;28;20184;-83
2023/08/04 03:16:06;;;;;;;3.40;1.90;;;14.50;99.90;;;;;;5056376;28;20688;-83
2023/08/04 03:18:31;;;;;;;4.20;1.27;;;14.60;99.90;;;;;;5058311;28;20177;-84
2023/08/04 03:21:01;;;;;;;3.20;1.23;;;14.60;99.90;;;;;;5051242;28;20181;-84
2023/08/04 03:23:27;;;;;;;2.10;0.90;;;14.70;99.90;;;;;;5046158;28;20208;-82
2023/08/04 03:25:52;;;;;;;2.07;1.43;;;14.90;99.90;;;;;;5058965;28;20446;-84
2023/08/04 03:28:18;;;;;;;3.77;1.30;;;14.90;99.90;;;;;;5055294;28;20661;-83
2023/08/04 03:30:44;;;;;;;5.17;1.40;;;14.90;99.90;;;;;;5045705;28;20260;-83
2023/08/04 03:33:09;;;;;;;3.43;1.30;;;15.00;99.90;;;;;;5035296;28;20235;-84
2023/08/04 03:35:35;;;;;;;4.00;1.83;;;14.90;99.90;;;;;;5052319;28;20200;-82
2023/08/04 03:38:02;;;;;;;4.77;1.80;;;14.90;99.90;;;;;;5038689;28;20184;-83
2023/08/04 03:40:28;;;;;;;1.30;1.20;;;14.90;99.90;;;;;;5052440;28;20192;-82
2023/08/04 03:42:53;;;;;;;5.17;2.47;;;14.80;99.90;;;;;;5055333;28;20510;-83
2023/08/04 03:45:19;;;;;;;3.47;0.77;;;14.90;99.90;;;;;;5033795;28;20184;-83
2023/08/04 03:47:44;;;;;;;9.20;1.23;;;14.90;99.90;;;;;;5033967;28;20644;-83
2023/08/04 03:50:10;;;;;;;2.70;1.17;;;14.90;99.90;;;;;;5055883;28;20235;-82
2023/08/04 03:52:35;;;;;;;4.03;0.97;;;14.90;99.90;;;;;;5043442;28;20311;-81
2023/08/04 03:55:01;;;;;;;4.27;1.47;;;15.00;99.90;;;;;;5037206;28;20217;-85
2023/08/04 03:57:26;;;;;;;1.73;0.90;;;15.00;99.90;;;;;;5055385;28;20197;-83
2023/08/04 03:59:53;;;;;;;3.60;1.53;;;15.10;99.90;;;;;;5049985;28;20187;-80
2023/08/04 04:02:19;;;;;;;1.70;1.30;;;15.10;99.90;;;;;;5050584;28;20952;-82
2023/08/04 04:04:44;;;;;;;8.70;1.80;;;15.30;99.90;;;;;;5050786;28;20435;-82
2023/08/04 04:07:10;;;;;;;3.40;1.47;;;15.40;99.90;;;;;;5053047;28;20443;-82
2023/08/04 04:09:36;;;;;;;7.40;1.70;;;15.20;99.90;;;;;;5056810;28;20266;-80
2023/08/04 04:12:02;;;;;;;2.03;1.10;;;15.20;99.90;;;;;;5053806;28;20208;-83
2023/08/04 04:14:27;;;;;;;2.93;1.47;;;15.20;99.90;;;;;;5038515;28;20188;-83
2023/08/04 04:16:53;;;;;;;5.60;1.97;;;15.00;99.90;;;;;;5036860;28;21080;-82
2023/08/04 04:19:18;;;;;;;5.90;2.00;;;14.90;99.90;;;;;;5032531;28;20262;-83
2023/08/04 04:21:44;;;;;;;6.57;2.50;;;14.70;99.90;;;;;;5036276;28;20983;-82
2023/08/04 04:24:09;;;;;;;4.07;2.30;;;14.60;99.90;;;;;;5053074;28;20217;-82
2023/08/04 04:26:35;;;;;;;3.70;1.83;;;14.50;99.90;;;;;;5034088;28;20184;-80
2023/08/04 04:29:00;;;;;;;2.87;1.93;;;14.50;99.90;;;;;;5046812;28;20204;-80
2023/08/04 04:31:26;;;;;;;2.97;1.80;;;14.60;99.90;;;;;;5039484;28;20208;-81
2023/08/04 04:33:51;;;;;;;2.80;1.97;;;14.60;99.90;;;;;;5035642;28;20239;-83
2023/08/04 04:36:17;;;;;;;4.37;2.20;;;14.80;99.90;;;;;;5055729;28;20255;-83
2023/08/04 04:38:42;;;;;;;4.60;1.83;;;14.90;99.90;;;;;;5032540;28;20185;-80
2023/08/04 04:41:09;;;;;;;4.17;1.90;;;15.00;99.90;;;;;;5051312;28;20216;-82
2023/08/04 04:43:35;;;;;;;5.67;2.83;;;14.90;99.90;;;;;;5051716;28;20207;-83
2023/08/04 04:46:01;;;;;;;9.40;2.17;;;14.90;99.90;;;;;;5053502;28;20435;-83
2023/08/04 04:48:26;;;;;;;3.30;2.40;;;14.90;99.90;;;;;;5055378;28;20817;-81
2023/08/04 04:50:52;;;;;;;3.70;2.37;;;15.00;99.90;;;;;;5053215;28;20193;-82
2023/08/04 04:53:18;;;;;;;5.60;4.47;;;15.20;99.90;;;;;;5021301;28;20582;-83
2023/08/04 04:55:43;;;;;;;4.27;2.67;;;15.30;99.90;;;;;;5033224;28;20183;-81
2023/08/04 04:58:09;;;;;;;1.60;1.50;;;15.50;99.90;;;;;;5035176;28;20209;-81
2023/08/04 05:00:35;;;;;;;3.47;1.63;;;15.60;99.90;;;;;;5031131;28;20184;-82
2023/08/04 05:03:04;;;;;;;2.73;1.77;;;15.80;99.90;;;;;;5037466;28;20493;-81
2023/08/04 05:05:29;;;;;;;5.33;1.93;;;15.90;99.90;;;;;;5043889;28;20179;-78
2023/08/04 05:07:55;;;;;;;5.87;1.90;;;16.10;99.90;;;;;;5050451;28;20439;-80
2023/08/04 05:10:20;;;;;;;3.70;2.30;;;16.20;99.90;;;;;;5024702;28;20211;-82
2023/08/04 05:12:46;;;;;;;3.00;1.97;;;16.50;99.90;;;;;;5023650;28;20214;-82
2023/08/04 05:15:11;;;;;;;8.13;2.77;;;16.80;99.90;;;;;;5031486;28;20667;-82
2023/08/04 05:17:38;;;;;;;2.27;1.53;;;17.20;99.90;;;;;;5051981;28;20556;-83
2023/08/04 05:20:04;;;;;;;8.70;1.77;;;17.40;99.90;;;;;;5035543;28;20196;-84
2023/08/04 05:22:30;;;;;;;4.10;1.90;;;17.70;99.90;;;;;;5029068;28;20518;-81
2023/08/04 05:24:55;;;;;;;4.63;1.60;;;17.90;99.90;;;;;;5038695;28;20446;-83
2023/08/04 05:27:20;;;;;;;4.33;2.30;;;17.90;99.90;;;;;;5051326;28;20263;-82
2023/08/04 05:29:46;;;;;;;5.03;2.10;;;18.10;99.90;;;;;;5048542;28;20660;-83
2023/08/04 05:32:12;;;;;;;4.00;1.43;;;18.20;99.90;;;;;;5047441;28;20203;-82
2023/08/04 05:34:37;;;;;;;2.33;1.70;;;18.20;99.90;;;;;;5055715;28;20188;-79
2023/08/04 05:37:03;;;;;;;5.73;2.13;;;18.40;99.90;;;;;;5054047;28;20189;-81
2023/08/04 05:39:28;;;;;;;3.77;1.80;;;18.50;99.90;;;;;;5041679;28;20287;-80
2023/08/04 05:41:54;;;;;;;3.30;1.70;;;18.70;99.90;;;;;;5029772;28;20208;-82
2023/08/04 05:44:22;;;;;;;2.80;1.83;;;18.80;99.90;;;;;;5049357;28;20209;-80
2023/08/04 05:46:48;;;;;;;6.73;1.70;;;;;;;;;;5036930;28;20192;-83
2023/08/04 05:49:13;;;;;;;4.10;1.50;;;19.30;99.90;;;;;;5045976;28;20435;-79
2023/08/04 05:51:39;;;;;;;2.73;1.40;;;19.70;99.90;;;;;;5028569;28;20454;-81
2023/08/04 05:54:04;;;;;;;4.87;1.90;;;20.10;99.90;;;;;;5033169;28;20618;-80
2023/08/04 05:56:30;;;;;;;3.07;1.57;;;21.40;99.90;;;;;;5036712;28;20199;-81
2023/08/04 05:58:55;;;;;;;2.20;1.80;;;22.50;99.90;;;;;;5041515;28;20184;-81
2023/08/04 06:01:21;;;;;;;4.13;1.23;;;23.00;99.90;;;;;;5036901;28;20907;-83
2023/08/04 06:03:46;;;;;;;2.90;1.17;;;23.10;99.90;;;;;;5049800;28;20211;-81
2023/08/04 06:06:13;;;;;;;4.03;1.53;;;23.40;99.90;;;;;;5045910;28;20203;-81
2023/08/04 06:08:38;;;;;;;2.77;1.47;;;23.50;99.90;;;;;;5026403;28;21460;-81
2023/08/04 06:11:04;;;;;;;2.83;1.20;;;23.50;99.90;;;;;;5046752;28;20184;-81
2023/08/04 06:13:29;;;;;;;5.13;1.40;;;23.20;99.90;;;;;;5045771;28;20532;-81
2023/08/04 06:15:55;;;;;;;3.10;1.67;;;22.40;99.90;;;;;;5031527;28;20252;-81
2023/08/04 06:18:20;;;;;;;3.63;1.73;;;21.10;99.90;;;;;;5049062;28;20912;-79
2023/08/04 06:20:47;;;;;;;3.30;1.83;;;20.30;99.90;;;;;;5030921;28;20185;-81
2023/08/04 06:23:13;;;;;;;3.47;2.10;;;20.30;99.90;;;;;;5033098;28;20366;-80
2023/08/04 06:25:39;;;;;;;3.17;1.93;;;19.80;99.90;;;;;;5044644;28;20430;-79
2023/08/04 06:28:04;;;;;;;3.33;2.00;;;19.40;99.90;;;;;;5048197;28;20445;-81
2023/08/04 06:30:30;;;;;;;4.50;1.97;;;19.30;99.90;;;;;;5029114;28;20209;-80
2023/08/04 06:32:56;;;;;;;4.63;1.40;;;19.20;99.90;;;;;;5028928;28;20200;-80
2023/08/04 06:35:21;;;;;;;4.27;1.50;;;19.10;99.90;;;;;;5046797;28;20431;-80
2023/08/04 06:37:47;;;;;;;4.70;1.70;;;19.20;99.90;;;;;;5033949;28;20213;-82
2023/08/04 06:40:12;;;;;;;2.90;1.20;;;19.30;99.90;;;;;;5036853;28;20189;-82
2023/08/04 06:42:38;;;;;;;3.97;1.63;;;19.10;99.90;;;;;;5041334;28;20216;-81
2023/08/04 06:45:04;;;;;;;2.30;0.97;;;19.10;99.90;;;;;;5053966;28;20211;-86
2023/08/04 06:47:30;;;;;;;2.37;1.20;;;19.20;99.90;;;;;;5059451;28;20177;-82
2023/08/04 06:49:56;;;;;;;3.40;1.23;;;19.40;99.90;;;;;;5052256;28;20506;-85
2023/08/04 06:52:21;;;;;;;2.83;0.97;;;19.60;99.90;;;;;;5054133;28;20585;-85
2023/08/04 06:54:48;;;;;;;1.80;1.33;;;19.80;99.90;;;;;;5051971;28;20627;-82
2023/08/04 06:57:14;;;;;;;8.50;1.20;;;19.50;99.90;;;;;;5038625;28;20185;-84
2023/08/04 06:59:39;;;;;;;1.40;1.30;;;19.40;99.90;;;;;;5033534;28;20441;-80
2023/08/04 07:02:05;;;;;;;3.13;0.80;;;19.30;99.90;;;;;;5036479;28;20208;-82
2023/08/04 07:04:31;;;;;;;2.90;0.80;;;19.50;99.90;;;;;;5035365;28;20239;-81
2023/08/04 07:06:57;;;;;;;1.33;0.90;;;19.60;99.90;;;;;;5047234;28;21064;-81
2023/08/04 07:09:23;;;;;;;3.03;1.00;;;19.80;99.90;;;;;;5046863;28;20253;-80
2023/08/04 07:11:48;;;;;;;2.70;1.57;;;19.90;99.90;;;;;;5044383;28;21159;-81
2023/08/04 07:14:14;;;;;;;2.70;1.10;;;20.10;99.90;;;;;;5035066;28;20217;-82
2023/08/04 07:16:39;;;;;;;3.43;1.27;;;20.20;99.90;;;;;;5029279;28;20234;-82
2023/08/04 07:19:05;;;;;;;3.10;1.17;;;20.30;99.90;;;;;;5036463;28;20207;-84
2023/08/04 07:21:30;;;;;;;3.00;1.10;;;20.50;99.90;;;;;;5047758;28;20204;-82
2023/08/04 07:23:56;;;;;;;2.20;1.17;;;20.50;99.90;;;;;;5033159;28;20247;-80
2023/08/04 07:26:21;;;;;;;2.80;0.80;;;20.30;99.90;;;;;;5047071;28;20181;-79
2023/08/04 07:28:47;;;;;;;1.10;0.73;;;20.40;99.90;;;;;;5032004;28;20173;-78
2023/08/04 07:31:12;;;;;;;2.60;1.17;;;20.20;99.90;;;;;;5027630;28;20641;-80
2023/08/04 07:33:38;;;;;;;2.40;1.20;;;19.90;99.90;;;;;;5040671;28;20291;-81
2023/08/04 07:36:04;;;;;;;3.60;1.23;;;20.00;99.90;;;;;;5028083;28;20712;-81
2023/08/04 07:38:30;;;;;;;2.20;1.30;;;19.90;99.90;;;;;;5043335;28;20198;-79
2023/08/04 07:40:57;;;;;;;2.07;1.73;;;19.90;99.90;;;;;;5036372;28;20523;-79
2023/08/04 07:43:23;;;;;;;7.30;1.70;;;19.80;99.90;;;;;;5046711;28;20461;-80
2023/08/04 07:45:49;;;;;;;4.73;1.17;;;19.60;99.90;;;;;;5044951;28;20533;-81
2023/08/04 07:48:15;;;;;;;3.80;1.20;;;20.10;99.90;;;;;;5034387;28;20428;-81
2023/08/04 07:50:42;;;;;;;3.20;1.13;;;20.70;99.90;;;;;;5047292;28;20653;-80
2023/08/04 07:53:08;;;;;;;2.17;1.10;;;20.60;99.90;;;;;;5030431;28;20204;-81
2023/08/04 07:55:36;;;;;;;7.00;1.40;;;20.60;99.90;;;;;;5055316;28;20455;-82
2023/08/04 07:58:03;;;;;;;3.60;1.43;;;20.70;99.90;;;;;;5041565;28;20177;-80
2023/08/04 08:00:28;;;;;;;1.90;1.20;;;20.40;99.90;;;;;;5059075;28;20431;-79
2023/08/04 08:02:54;;;;;;;2.30;1.27;;;20.30;99.90;;;;;;5033368;28;20473;-84
2023/08/04 08:05:19;;;;;;;2.37;1.13;;;20.00;99.90;;;;;;5035041;28;20260;-83
2023/08/04 08:07:45;;;;;;;3.90;1.23;;;20.00;99.90;;;;;;5055238;28;20212;-81
2023/08/04 08:10:10;;;;;;;3.03;1.10;;;20.10;99.90;;;;;;5054142;28;20172;-81
2023/08/04 08:12:36;;;;;;;6.77;1.50;;;20.10;99.90;;;;;;5046783;28;20215;-81
2023/08/04 08:15:05;;;;;;;1.43;1.33;;;20.40;99.90;;;;;;5048808;28;20197;-81
2023/08/04 08:17:31;;;;;;;3.73;0.97;;;20.70;99.90;;;;;;5031541;28;20506;-81
2023/08/04 08:19:56;;;;;;;1.60;0.90;;;20.90;99.90;;;;;;5039167;28;20962;-83
2023/08/04 08:22:22;;;;;;;1.60;0.77;;;21.20;99.90;;;;;;5029519;28;20462;-80
2023/08/04 08:24:51;;;;;;;1.20;0.93;;;21.10;99.90;;;;;;5052088;28;20610;-82
2023/08/04 08:27:17;;;;;;;5.93;1.03;;;21.30;99.90;;;;;;5050447;28;20180;-82
2023/08/04 08:29:43;;;;;;;2.00;1.30;;;;;;;;;;5047909;28;21170;-82
2023/08/04 08:32:08;;;;;;;3.70;1.10;;;21.40;99.90;;;;;;5032352;28;20201;-82
2023/08/04 08:34:34;;;;;;;1.50;1.03;;;21.50;99.90;;;;;;5031717;28;20435;-80
2023/08/04 08:37:00;;;;;;;2.33;1.37;;;21.70;99.90;;;;;;5033158;28;20188;-83
2023/08/04 08:39:28;;;;;;;2.17;1.27;;;21.70;99.90;;;;;;5031732;28;20295;-82
2023/08/04 08:41:53;;;;;;;6.93;1.60;;;21.40;99.90;;;;;;5025452;28;20483;-84
2023/08/04 08:44:19;;;;;;;3.03;1.17;;;20.90;99.90;;;;;;5036453;28;20881;-83
2023/08/04 08:46:44;;;;;;;1.70;1.30;;;20.50;99.90;;;;;;5048345;28;20227;-80
2023/08/04 08:49:11;;;;;;;2.57;1.50;;;20.90;99.90;;;;;;5046790;28;21115;-81
2023/08/04 08:51:39;;;;;;;0.90;0.80;;;21.70;99.90;;;;;;5036835;28;20203;-81
2023/08/04 08:54:06;;;;;;;2.13;0.80;;;23.00;99.90;;;;;;5047321;28;20460;-83
2023/08/04 08:56:33;;;;;;;5.53;1.10;;;24.40;99.90;;;;;;5046095;28;20505;-80
2023/08/04 08:58:59;;;;;;;1.47;0.70;;;24.30;99.90;;;;;;5049534;28;20493;-81
2023/08/04 09:01:24;;;;;;;2.27;0.67;;;24.00;99.90;;;;;;5052241;28;20437;-79
2023/08/04 09:03:50;;;;;;;3.37;1.00;;;24.00;99.90;;;;;;5055890;28;20212;-82
2023/08/04 09:06:16;;;;;;;1.30;0.73;;;24.20;99.90;;;;;;5049335;28;20192;-81
2023/08/04 09:08:41;;;;;;;1.00;0.60;;;23.70;99.90;;;;;;5048844;28;20463;-82
2023/08/04 09:11:07;;;;;;;0.70;0.70;;;;;;;;;;5049913;28;21278;-80
2023/08/04 09:13:34;;;;;;;1.30;0.80;;;22.10;99.90;;;;;;5036791;28;20188;-81
2023/08/04 09:16:00;;;;;;;1.73;0.80;;;21.80;99.90;;;;;;5053250;28;20434;-82
2023/08/04 09:18:25;;;;;;;1.07;0.60;;;21.90;99.90;;;;;;5067514;28;20431;-82
2023/08/04 09:20:59;;;;;;;0.97;0.83;;;22.00;99.90;;;;;;5053407;28;20181;-81
2023/08/04 09:23:27;;;;;;;1.80;1.07;;;21.50;99.90;;;;;;5047975;28;20463;-81
2023/08/04 09:25:53;;;;;;;1.23;0.80;;;20.90;99.90;;;;;;5050805;28;20506;-83
2023/08/04 09:28:19;;;;;;;3.23;1.00;;;21.10;99.90;;;;;;5051189;28;21216;-84
2023/08/04 09:31:05;;;;;;;1.73;0.70;;;21.40;99.90;;;;;;5052761;28;20436;-83
2023/08/04 09:33:37;;;;;;;2.10;0.87;;;21.80;99.90;;;;;;5047890;28;20656;-84
2023/08/04 09:36:10;;;;;;;2.70;1.57;;;22.10;99.90;;;;;;5049335;28;20432;-82
2023/08/04 09:38:38;;;;;;;1.60;0.60;;;22.60;99.90;;;;;;5036143;28;20500;-82
2023/08/04 09:41:06;;;;;;;2.17;0.60;;;23.20;99.90;;;;;;5035414;28;20431;-81
2023/08/04 09:43:32;;;;;;;1.57;0.73;;;23.40;99.90;;;;;;5047634;28;20465;-82
2023/08/04 09:45:59;;;;;;;2.30;1.00;;;23.50;99.90;;;;;;5046756;28;20671;-82
2023/08/04 09:48:26;;;;;;;2.03;1.10;;;24.10;99.90;;;;;;5032688;28;20679;-82
2023/08/04 09:51:23;;;;;;;1.70;0.80;;;24.50;99.90;;;;;;5049992;28;20555;-82
2023/08/04 09:53:52;;;;;;;2.73;0.80;;;24.90;99.90;;;;;;5027393;28;20433;-80
2023/08/04 09:56:19;;;;;;;4.27;1.33;;;24.30;99.90;;;;;;5049213;28;20458;-81
2023/08/04 09:58:46;;;;;;;2.20;1.57;;;22.70;99.90;;;;;;5029881;28;20439;-79
2023/08/04 10:01:13;;;;;;;1.33;1.23;;;22.80;99.90;;;;;;5032003;28;20423;-82
2023/08/04 10:03:43;;;;;;;4.13;0.93;;;22.80;99.90;;;;;;5028673;28;20480;-80
2023/08/04 10:06:09;;;;;;;6.10;0.90;;;22.60;99.90;;;;;;5035897;28;20443;-82
2023/08/04 10:08:39;;;;;;;2.33;1.10;;;22.10;99.90;;;;;;5050231;28;21298;-78
2023/08/04 10:11:06;;;;;;;4.10;1.53;;;21.50;99.90;;;;;;5053373;28;20525;-83
2023/08/04 10:13:37;;;;;;;2.50;1.13;;;21.00;99.90;;;;;;5037734;28;20485;-80
2023/08/04 10:16:08;;;;;;;2.00;1.30;;;20.50;99.90;;;;;;5045527;28;21125;-82
2023/08/04 10:19:03;;;;;;;3.00;1.17;;;20.00;99.90;;;;;;5049278;28;20432;-81
2023/08/04 10:21:38;;;;;;;2.43;1.17;;;19.80;99.90;;;;;;5051225;28;20465;-82
2023/08/04 10:24:06;;;;;;;1.97;0.63;;;20.00;99.90;;;;;;5047508;28;20573;-81
2023/08/04 10:26:33;;;;;;;1.70;0.83;;;19.90;99.90;;;;;;5025448;28;20439;-82
2023/08/04 10:29:04;;;;;;;1.40;1.10;;;20.50;99.90;;;;;;5040272;28;20469;-79
2023/08/04 10:31:59;;;;;;;5.57;2.63;;;21.30;99.90;;;;;;5046327;28;21085;-80
2023/08/04 10:34:33;;;;;;;1.57;0.80;;;21.40;99.90;;;;;;5036602;28;20474;-81
2023/08/04 10:37:15;;;;;;;2.40;1.30;;;21.60;99.90;;;;;;5047638;28;20494;-81
2023/08/04 10:39:44;;;;;;;2.80;1.30;;;21.10;99.90;;;;;;5063786;28;20447;-81
2023/08/04 10:42:20;;;;;;;1.70;0.83;;;20.80;99.90;;;;;;5045045;28;21031;-80
2023/08/04 10:44:52;;;;;;;1.17;0.60;;;21.20;99.90;;;;;;5033856;28;20459;-80
2023/08/04 10:47:41;;;;;;;5.07;1.03;;;21.30;99.90;;;;;;5043508;28;21042;-83
2023/08/04 10:50:07;;;;;;;1.77;1.10;;;21.30;99.90;;;;;;5053785;28;20536;-81
2023/08/04 10:52:34;;;;;;;2.13;1.10;;;21.10;99.90;;;;;;5049545;28;20453;-80
2023/08/04 10:55:01;;;;;;;3.83;1.10;;;21.50;99.90;;;;;;5040797;28;20763;-81
2023/08/04 10:57:30;;;;;;;1.63;0.87;;;22.10;99.90;;;;;;5037236;28;21342;-82
2023/08/04 10:59:56;;;;;;;1.37;1.13;;;21.90;99.90;;;;;;5048549;28;20424;-82
2023/08/04 11:02:23;;;;;;;2.50;1.00;;;21.80;99.90;;;;;;5036610;28;20532;-80
2023/08/04 11:04:50;;;;;;;2.50;0.93;;;21.80;99.90;;;;;;5052323;28;20205;-81
2023/08/04 11:07:16;;;;;;;1.30;0.90;;;21.60;99.90;;;;;;5046025;28;20426;-80
2023/08/04 11:09:44;;;;;;;2.40;0.90;;;21.20;99.90;;;;;;5045582;28;21004;-78
2023/08/04 11:12:10;;;;;;;3.07;1.47;;;20.80;99.90;;;;;;5050139;28;20475;-81
2023/08/04 11:14:36;;;;;;;1.30;1.00;;;20.50;99.90;;;;;;5050093;28;20470;-81
2023/08/04 11:17:03;;;;;;;1.97;1.00;;;20.60;99.90;;;;;;5046866;28;20665;-81
2023/08/04 11:19:29;;;;;;;2.07;1.27;;;20.50;99.90;;;;;;5060653;28;20530;-80
2023/08/04 11:21:54;;;;;;;2.83;1.27;;;20.60;99.90;;;;;;5042557;28;20447;-82
2023/08/04 11:24:24;;;;;;;2.33;1.50;;;20.00;99.90;;;;;;5037161;28;20480;-81
2023/08/04 11:26:51;;;;;;;5.10;1.40;;;19.80;99.90;;;;;;5033954;28;20203;-80
2023/08/04 11:29:17;;;;;;;2.93;1.60;;;19.80;99.90;;;;;;5049434;28;20438;-81
2023/08/04 11:31:43;;;;;;;2.40;2.20;;;19.50;99.90;;;;;;5046925;28;20454;-81
2023/08/04 11:34:16;;;;;;;2.10;1.80;;;19.50;99.90;;;;;;5050790;28;21122;-80
2023/08/04 11:36:42;;;;;;;6.13;1.80;;;19.20;99.90;;;;;;5038798;28;20181;-80
2023/08/04 11:39:07;;;;;;;5.30;1.57;;;18.90;99.90;;;;;;5033717;28;20454;-82
2023/08/04 11:41:33;;;;;;;3.77;2.00;;;18.80;99.90;;;;;;5033758;28;20471;-80
2023/08/04 11:43:59;;;;;;;3.47;1.53;;;18.80;99.90;;;;;;5028226;28;20568;-78
2023/08/04 11:46:27;;;;;;;2.03;1.90;;;18.90;99.90;;;;;;5045522;28;20426;-80
2023/08/04 11:48:52;;;;;;;4.60;1.60;;;18.90;99.90;;;;;;5050360;28;20958;-79
2023/08/04 11:51:18;;;;;;;3.40;1.63;;;19.10;99.90;;;;;;5034695;28;20443;-82
2023/08/04 11:53:46;;;;;;;1.67;1.40;;;19.40;99.90;;;;;;5052062;28;20188;-81
2023/08/04 11:56:11;;;;;;;1.83;1.70;;;19.50;99.90;;;;;;5049824;28;20457;-80
2023/08/04 11:58:43;;;;;;;4.10;2.53;;;19.70;99.90;;;;;;5049471;28;20439;-84
2023/08/04 12:01:30;;;;;;;2.27;2.07;;;19.50;99.90;;;;;;5052632;28;20283;-80
2023/08/04 12:03:55;;;;;;;2.23;1.70;;;19.50;99.90;;;;;;5055357;28;20458;-81
2023/08/04 12:06:23;;;;;;;3.73;2.50;;;19.50;99.90;;;;;;5049692;28;20446;-80
2023/08/04 12:08:50;;;;;;;2.00;1.73;;;19.80;99.90;;;;;;5037904;28;20180;-81
2023/08/04 12:11:17;;;;;;;2.60;2.10;;;20.40;99.90;;;;;;5030961;28;20435;-84
2023/08/04 12:13:42;;;;;;;4.60;1.90;;;20.40;99.90;;;;;;5051731;28;20546;-80
2023/08/04 12:16:09;;;;;;;2.73;2.30;;;21.00;99.90;;;;;;5050264;28;20601;-81
2023/08/04 12:18:34;;;;;;;1.90;1.80;;;21.10;99.90;;;;;;5038079;28;20196;-81
2023/08/04 12:21:01;;;;;;;2.30;2.00;;;21.50;99.90;;;;;;5052284;28;20439;-79
2023/08/04 12:23:27;;;;;;;1.97;1.80;;;21.50;99.90;;;;;;5046546;28;20287;-81
2023/08/04 12:25:52;;;;;;;2.13;1.90;;;21.50;99.90;;;;;;5036425;28;20500;-82
2023/08/04 12:28:18;;;;;;;3.70;2.60;;;21.30;99.90;;;;;;5039273;28;20184;-81
2023/08/04 12:30:44;;;;;;;5.10;2.50;;;21.50;99.90;;;;;;5038273;28;20995;-79
2023/08/04 12:33:10;;;;;;;3.13;2.20;;;22.00;99.90;;;;;;5034523;28;20268;-81
2023/08/04 12:35:35;;;;;;;2.10;1.63;;;22.00;99.90;;;;;;5051545;28;20185;-80
2023/08/04 12:38:04;;;;;;;2.83;2.33;;;22.30;99.90;;;;;;5049085;28;20427;-81
2023/08/04 12:40:33;;;;;;;2.37;1.93;;;22.50;99.90;;;;;;5042338;28;20211;-82
2023/08/04 12:42:59;;;;;;;2.30;1.50;;;;;;;;;;5050964;28;20469;-83
2023/08/04 12:45:24;;;;;;;2.33;1.90;;;21.90;99.90;;;;;;5052681;28;20431;-80